Time;durP1;ratioP1;P1;durP2;ratioP2;P2;SDS_P1;SDS_P2;PMS_P1;PMS_P2;Temp;Humidity;BMP_temperature;BMP_pressure;BME280_temperature;BME280_humidity;BME280_pressure;Samples;Min_cycle;Max_cycle;Signal;HPM_P1;HPM_P2
2023/11/09 00:00:09;;;;;;;1.60;1.50;;;;;;;7.94;58.38;94543.84;6160101;23;20179;-84
2023/11/09 00:02:37;;;;;;;1.77;1.67;;;;;;;7.96;58.18;94545.25;6159443;23;20185;-85
2023/11/09 00:05:04;;;;;;;1.53;1.43;;;;;;;7.93;57.86;94537.91;6159781;23;20199;-84
2023/11/09 00:07:32;;;;;;;1.60;1.50;;;;;;;7.91;57.99;94527.06;6159948;23;20257;-84
2023/11/09 00:10:00;;;;;;;2.00;1.50;;;;;;;7.93;58.12;94524.31;6160340;23;20287;-84
2023/11/09 00:12:28;;;;;;;1.80;1.60;;;;;;;7.90;57.82;94510.09;6159598;23;20159;-84
2023/11/09 00:14:55;;;;;;;1.60;1.30;;;;;;;7.89;57.89;94512.84;6161719;23;20254;-81
2023/11/09 00:17:21;;;;;;;1.30;1.20;;;;;;;7.93;57.96;94514.06;6163013;23;20159;-82
2023/11/09 00:19:49;;;;;;;1.67;1.30;;;;;;;7.90;57.86;94497.28;6163875;23;20179;-82
2023/11/09 00:22:16;;;;;;;1.47;1.30;;;;;;;7.89;57.95;94510.28;6165172;23;20182;-82
2023/11/09 00:24:42;;;;;;;1.47;1.30;;;;;;;7.92;57.61;94500.47;6163239;23;20586;-82
2023/11/09 00:27:16;;;;;;;1.40;1.30;;;;;;;7.91;57.41;94487.81;6163499;23;20259;-82
2023/11/09 00:29:43;;;;;;;1.40;1.30;;;;;;;7.90;57.89;94499.06;6164057;23;20182;-82
2023/11/09 00:32:10;;;;;;;1.20;1.10;;;;;;;7.90;57.62;94492.16;6163607;23;20185;-81
2023/11/09 00:34:36;;;;;;;1.40;1.30;;;;;;;7.94;57.70;94497.72;6162972;23;20191;-82
2023/11/09 00:37:04;;;;;;;20.37;16.23;;;;;;;7.98;57.54;94493.81;6162977;23;20182;-82
2023/11/09 00:39:31;;;;;;;2.93;2.70;;;;;;;7.93;57.24;94465.38;6163462;23;20181;-81
2023/11/09 00:41:57;;;;;;;1.50;1.40;;;;;;;7.91;57.01;94475.00;6163872;23;20185;-82
2023/11/09 00:44:24;;;;;;;1.87;1.50;;;;;;;7.93;57.20;94468.72;6163159;23;20195;-83
2023/11/09 00:46:50;;;;;;;1.20;1.10;;;;;;;7.94;57.02;94454.16;6163729;23;20195;-82
2023/11/09 00:49:17;;;;;;;1.27;1.17;;;;;;;7.91;57.02;94449.38;6163786;23;20179;-83
2023/11/09 00:51:43;;;;;;;1.57;1.30;;;;;;;7.94;57.18;94451.59;6163176;23;20209;-82
2023/11/09 00:54:11;;;;;;;1.23;1.13;;;;;;;7.90;57.29;94443.47;6162434;23;20202;-80
2023/11/09 00:56:37;;;;;;;1.00;1.00;;;;;;;7.89;57.00;94429.06;6162966;23;20543;-82
2023/11/09 00:59:06;;;;;;;1.90;1.37;;;;;;;7.86;56.77;94426.13;6163718;23;20182;-81
2023/11/09 01:01:32;;;;;;;1.30;1.20;;;;;;;7.90;56.95;94432.44;6162872;23;20179;-83
2023/11/09 01:03:59;;;;;;;1.40;1.10;;;;;;;7.81;56.66;94401.06;6162918;23;20205;-82
2023/11/09 01:06:25;;;;;;;1.20;1.10;;;;;;;7.80;56.58;94406.38;6162658;23;20179;-81
2023/11/09 01:08:52;;;;;;;1.20;1.10;;;;;;;7.83;56.51;94417.03;6162141;23;20277;-82
2023/11/09 01:11:24;;;;;;;1.27;1.17;;;;;;;7.77;56.67;94430.59;6163855;23;20202;-82
2023/11/09 01:13:52;;;;;;;1.77;1.33;;;;;;;7.81;56.37;94406.19;6162441;23;20433;-82
2023/11/09 01:16:18;;;;;;;1.93;1.10;;;;;;;7.78;56.68;94409.13;6161696;23;20175;-82
2023/11/09 01:18:45;;;;;;;1.30;1.20;;;;;;;7.73;57.17;94426.00;6162583;23;20175;-81
2023/11/09 01:21:11;;;;;;;1.30;1.20;;;;;;;7.70;57.27;94427.19;6161627;23;20183;-82
2023/11/09 01:23:37;;;;;;;1.30;1.20;;;;;;;7.73;57.28;94436.25;6160888;23;20206;-82
2023/11/09 01:26:04;;;;;;;1.00;0.90;;;;;;;7.76;56.67;94412.84;6162853;23;20174;-82
2023/11/09 01:28:32;;;;;;;0.90;0.87;;;;;;;7.81;57.01;94400.25;6163141;23;20206;-81
2023/11/09 01:30:59;;;;;;;1.10;1.00;;;;;;;7.79;56.61;94382.50;6162947;23;20179;-82
2023/11/09 01:33:25;;;;;;;1.70;1.10;;;;;;;7.69;56.39;94371.03;6162193;23;20203;-82
2023/11/09 01:35:51;;;;;;;1.40;1.07;;;;;;;7.73;56.46;94379.91;6162607;23;20238;-81
2023/11/09 01:38:18;;;;;;;1.10;1.00;;;;;;;7.73;56.30;94369.66;6161306;23;20175;-82
2023/11/09 01:40:51;;;;;;;1.07;0.97;;;;;;;7.73;56.13;94359.41;6161456;23;20240;-81
2023/11/09 01:43:18;;;;;;;1.43;1.20;;;;;;;7.76;56.62;94366.72;6161771;23;20187;-82
2023/11/09 01:45:46;;;;;;;2.27;1.27;;;;;;;7.75;56.04;94357.44;6164045;23;20178;-81
2023/11/09 01:48:14;;;;;;;1.10;1.00;;;;;;;7.71;55.50;94333.19;6164407;23;20222;-82
2023/11/09 01:50:40;;;;;;;1.10;0.90;;;;;;;7.62;55.75;94325.69;6163993;23;20207;-81
2023/11/09 01:53:09;;;;;;;1.20;1.10;;;;;;;7.58;55.54;94318.56;6163935;23;20191;-83
2023/11/09 01:55:36;;;;;;;1.50;1.00;;;;;;;7.65;55.99;94326.28;6163550;23;20880;-82
2023/11/09 01:58:03;;;;;;;1.13;1.03;;;;;;;7.63;55.78;94314.44;6163393;23;20175;-82
2023/11/09 02:00:30;;;;;;;1.83;1.00;;;;;;;7.62;55.62;94314.63;6163914;23;20210;-82
2023/11/09 02:02:59;;;;;;;1.37;1.10;;;;;;;7.63;55.83;94303.41;6163382;23;20190;-82
2023/11/09 02:05:26;;;;;;;1.17;1.07;;;;;;;7.64;55.18;94294.75;6162549;23;20214;-82
2023/11/09 02:07:54;;;;;;;2.97;1.10;;;;;;;7.63;55.43;94283.72;6162322;23;20195;-81
2023/11/09 02:10:21;;;;;;;1.53;1.20;;;;;;;7.69;55.45;94289.06;6163637;23;20183;-82
2023/11/09 02:12:48;;;;;;;1.60;1.20;;;;;;;7.72;55.59;94275.84;6162261;23;20178;-82
2023/11/09 02:15:14;;;;;;;1.10;1.00;;;;;;;7.69;55.18;94263.44;6163379;23;20209;-83
2023/11/09 02:17:41;;;;;;;0.90;0.83;;;;;;;7.68;54.92;94259.31;6163433;23;20684;-82
2023/11/09 02:20:13;;;;;;;1.10;1.00;;;;;;;7.65;55.14;94268.16;6163908;23;20178;-83
2023/11/09 02:22:41;;;;;;;1.13;1.00;;;;;;;7.63;54.91;94247.06;6164333;23;20163;-82
2023/11/09 02:25:10;;;;;;;0.87;0.80;;;;;;;7.69;54.94;94240.41;6163269;23;20195;-81
2023/11/09 02:27:36;;;;;;;0.90;0.90;;;;;;;7.69;54.52;94222.47;6162674;23;20830;-83
2023/11/09 02:30:04;;;;;;;1.10;0.90;;;;;;;7.68;54.54;94218.31;6163968;23;20230;-82
2023/11/09 02:32:30;;;;;;;1.10;1.00;;;;;;;7.62;54.35;94196.81;6162890;23;20179;-82
2023/11/09 02:34:57;;;;;;;1.00;0.90;;;;;;;7.61;53.99;94188.34;6162739;23;20203;-81
2023/11/09 02:37:24;;;;;;;1.13;0.70;;;;;;;7.63;53.93;94183.03;6163044;23;20229;-83
2023/11/09 02:39:52;;;;;;;0.93;0.90;;;;;;;7.65;54.47;94193.09;6162325;23;20238;-82
2023/11/09 02:42:20;;;;;;;1.00;0.80;;;;;;;7.63;54.12;94177.91;6162181;23;20206;-83
2023/11/09 02:44:47;;;;;;;1.57;0.87;;;;;;;7.63;53.95;94171.03;6161936;23;20226;-82
2023/11/09 02:47:13;;;;;;;1.50;1.07;;;;;;;7.64;53.88;94156.44;6162914;23;20198;-82
2023/11/09 02:49:41;;;;;;;0.80;0.80;;;;;;;7.64;53.91;94138.50;6163272;23;20179;-82
2023/11/09 02:52:10;;;;;;;0.80;0.80;;;;;;;7.68;54.23;94149.16;6163222;23;20230;-82
2023/11/09 02:54:37;;;;;;;1.40;1.00;;;;;;;7.74;54.23;94164.53;6163282;23;20246;-82
2023/11/09 02:57:04;;;;;;;1.10;1.00;;;;;;;7.79;53.99;94175.00;6162985;23;20217;-82
2023/11/09 02:59:32;;;;;;;0.90;0.90;;;;;;;7.84;54.19;94176.97;6161982;23;20186;-82
2023/11/09 03:01:58;;;;;;;1.40;0.80;;;;;;;7.85;53.40;94142.69;6163293;23;20174;-82
2023/11/09 03:04:24;;;;;;;0.80;0.80;;;;;;;7.89;53.58;94152.34;6162960;23;20263;-82
2023/11/09 03:06:51;;;;;;;0.70;0.70;;;;;;;7.89;54.07;94175.41;6163951;23;20183;-82
2023/11/09 03:09:18;;;;;;;1.00;1.00;;;;;;;7.91;54.85;94193.16;6164644;23;20201;-83
2023/11/09 03:11:45;;;;;;;0.70;0.70;;;;;;;7.89;54.50;94182.28;6164489;23;20205;-82
2023/11/09 03:14:11;;;;;;;1.00;0.90;;;;;;;7.86;54.98;94211.69;6162616;23;20202;-83
2023/11/09 03:16:39;;;;;;;0.83;0.83;;;;;;;7.80;55.45;94227.03;6161379;23;20175;-82
2023/11/09 03:19:07;;;;;;;1.83;0.90;;;;;;;7.73;55.37;94221.06;6162208;23;20617;-82
2023/11/09 03:21:33;;;;;;;0.83;0.83;;;;;;;7.73;55.75;94229.56;6162419;23;20185;-82
2023/11/09 03:23:59;;;;;;;0.90;0.90;;;;;;;7.68;55.81;94257.53;6161857;23;20203;-82
2023/11/09 03:26:26;;;;;;;1.00;0.90;;;;;;;7.73;56.34;94269.75;6162434;23;20182;-82
2023/11/09 03:28:52;;;;;;;1.23;1.00;;;;;;;7.57;56.93;94289.59;6162663;23;20199;-82
2023/11/09 03:31:19;;;;;;;1.00;1.00;;;;;;;7.53;56.92;94305.50;6162813;23;20178;-82
2023/11/09 03:33:47;;;;;;;1.07;1.00;;;;;;;7.45;56.89;94308.25;6160646;23;20199;-83
2023/11/09 03:36:18;;;;;;;1.10;1.00;;;;;;;7.35;57.48;94336.72;6161878;23;20185;-81
2023/11/09 03:38:45;;;;;;;0.90;0.90;;;;;;;7.36;57.76;94353.69;6163206;23;20159;-81
2023/11/09 03:41:11;;;;;;;1.00;0.90;;;;;;;7.25;58.50;94374.69;6162267;23;20179;-82
2023/11/09 03:43:38;;;;;;;1.40;1.20;;;;;;;7.20;58.27;94361.63;6162924;23;20199;-82
2023/11/09 03:46:04;;;;;;;1.87;1.50;;;;;;;7.12;58.67;94377.16;6163772;23;20174;-80
2023/11/09 03:48:31;;;;;;;2.53;1.60;;;;;;;7.11;58.34;94384.03;6162758;23;20203;-82
2023/11/09 03:50:58;;;;;;;3.10;2.27;;;;;;;6.97;58.46;94359.28;6164293;23;20514;-83
2023/11/09 03:53:25;;;;;;;2.97;2.20;;;;;;;6.95;58.26;94358.69;6162257;23;20182;-81
2023/11/09 03:55:51;;;;;;;3.80;2.00;;;;;;;6.81;58.29;94364.66;6162639;23;20182;-82
2023/11/09 03:58:18;;;;;;;2.80;2.10;;;;;;;6.83;58.55;94368.63;6162621;23;20182;-82
2023/11/09 04:00:44;;;;;;;3.90;1.90;;;;;;;6.67;58.87;94355.28;6161998;23;20178;-82
2023/11/09 04:03:14;;;;;;;2.10;1.77;;;;;;;6.66;59.05;94376.72;6162126;23;20207;-82
2023/11/09 04:05:40;;;;;;;2.30;1.70;;;;;;;6.57;59.45;94399.84;6161808;23;20291;-83
2023/11/09 04:08:08;;;;;;;2.20;1.70;;;;;;;6.37;60.36;94416.72;6161810;23;20202;-81
2023/11/09 04:10:35;;;;;;;1.87;1.63;;;;;;;6.32;60.38;94439.50;6162197;23;20174;-83
2023/11/09 04:13:01;;;;;;;1.70;1.47;;;;;;;6.41;60.01;94429.94;6161973;23;20206;-81
2023/11/09 04:15:27;;;;;;;1.60;1.50;;;;;;;6.40;60.49;94429.16;6162642;23;20205;-82
2023/11/09 04:17:54;;;;;;;3.20;2.20;;;;;;;6.32;60.86;94446.38;6161503;23;20181;-82
2023/11/09 04:20:21;;;;;;;2.60;1.70;;;;;;;6.34;60.68;94447.78;6162535;23;20185;-82
2023/11/09 04:22:47;;;;;;;2.77;1.50;;;;;;;6.45;60.60;94460.09;6163555;23;20174;-83
2023/11/09 04:25:15;;;;;;;2.30;1.87;;;;;;;6.47;61.09;94457.34;6162475;23;20222;-83
2023/11/09 04:27:43;;;;;;;4.03;2.20;;;;;;;6.09;61.92;94495.81;6163865;23;20218;-82
2023/11/09 04:30:10;;;;;;;2.10;1.73;;;;;;;6.04;62.27;94513.41;6163816;23;20313;-81
2023/11/09 04:32:39;;;;;;;1.70;1.50;;;;;;;5.79;63.44;94538.34;6162401;23;20179;-81
2023/11/09 04:35:06;;;;;;;2.10;1.80;;;;;;;5.68;63.48;94564.31;6162345;23;20202;-82
2023/11/09 04:37:33;;;;;;;1.90;1.70;;;;;;;5.88;63.29;94564.63;6160279;23;20186;-84
2023/11/09 04:39:59;;;;;;;2.00;1.80;;;;;;;5.93;63.32;94551.38;6160262;23;20174;-84
2023/11/09 04:42:29;;;;;;;2.43;1.93;;;;;;;5.98;62.74;94536.28;6160090;23;20207;-84
2023/11/09 04:44:56;;;;;;;2.00;1.80;;;;;;;6.01;62.92;94526.53;6160747;23;20199;-84
2023/11/09 04:47:25;;;;;;;2.20;1.60;;;;;;;6.05;62.63;94521.88;6159706;23;20182;-85
2023/11/09 04:49:58;;;;;;;2.00;1.73;;;;;;;6.02;62.71;94524.78;6160421;23;20175;-85
2023/11/09 04:52:26;;;;;;;3.43;1.63;;;;;;;6.07;62.70;94530.16;6159674;23;20831;-84
2023/11/09 04:55:09;;;;;;;2.13;1.87;;;;;;;6.06;62.90;94526.81;6159346;23;20218;-85
2023/11/09 05:08:34;;;;;;;1.77;1.67;;;;;;;5.57;65.78;94658.38;6158908;23;20233;-84
2023/11/09 05:11:01;;;;;;;1.83;1.70;;;;;;;5.26;66.80;94654.06;6159984;23;20175;-84
2023/11/09 05:13:29;;;;;;;2.10;1.80;;;;;;;5.30;66.99;94665.53;6159918;23;20178;-84
2023/11/09 05:15:55;;;;;;;2.20;2.00;;;;;;;5.39;66.73;94663.72;6160570;23;20245;-84
2023/11/09 05:18:22;;;;;;;2.93;1.80;;;;;;;5.42;66.89;94648.06;6160553;23;20181;-84
2023/11/09 05:20:49;;;;;;;1.63;1.53;;;;;;;5.06;67.77;94673.28;6163014;23;20202;-85
2023/11/09 05:23:15;;;;;;;1.70;1.60;;;;;;;4.91;68.55;94702.97;6162425;23;20171;-84
2023/11/09 05:25:42;;;;;;;2.20;1.70;;;;;;;5.16;67.95;94691.75;6163316;23;20514;-85
2023/11/09 05:28:08;;;;;;;3.20;1.50;;;;;;;5.27;67.48;94667.63;6162392;23;20226;-85
2023/11/09 05:30:37;;;;;;;2.20;2.00;;;;;;;5.27;67.78;94655.66;6160795;23;20266;-85
2023/11/09 05:33:04;;;;;;;2.30;1.80;;;;;;;5.26;67.51;94666.03;6162063;23;20206;-85
2023/11/09 05:35:30;;;;;;;2.80;2.00;;;;;;;5.36;67.23;94646.22;6161319;23;20198;-84
2023/11/09 05:37:57;;;;;;;2.40;2.00;;;;;;;5.48;66.44;94615.03;6167017;23;20178;-83
2023/11/09 05:40:23;;;;;;;1.80;1.70;;;;;;;5.61;66.53;94604.25;6162376;23;20178;-84
2023/11/09 05:42:50;;;;;;;2.33;1.63;;;;;;;5.74;66.04;94601.94;6161679;23;20179;-85
2023/11/09 05:45:16;;;;;;;2.33;1.90;;;;;;;5.72;65.83;94583.44;6163803;23;20533;-85
2023/11/09 05:47:44;;;;;;;1.93;1.70;;;;;;;5.68;65.92;94589.84;6161412;23;20674;-84
2023/11/09 05:50:11;;;;;;;3.27;2.00;;;;;;;5.72;65.65;94588.53;6161721;23;20185;-84
2023/11/09 05:52:38;;;;;;;2.23;1.97;;;;;;;5.75;66.23;94589.97;6160125;23;20623;-85
2023/11/09 05:55:05;;;;;;;2.00;1.70;;;;;;;5.72;66.28;94591.09;6161906;23;20322;-85
2023/11/09 05:57:33;;;;;;;2.07;1.80;;;;;;;5.52;67.20;94613.72;6160679;23;20240;-84
2023/11/09 05:59:59;;;;;;;2.33;1.90;;;;;;;5.58;67.16;94619.91;6162833;23;20186;-85
2023/11/09 06:02:26;;;;;;;4.37;1.83;;;;;;;5.71;66.22;94599.72;6161736;23;20702;-84
2023/11/09 06:04:53;;;;;;;2.20;2.00;;;;;;;5.67;65.86;94570.38;6161655;23;20203;-84
2023/11/09 06:07:21;;;;;;;3.50;1.80;;;;;;;5.76;65.24;94553.25;6161367;23;20238;-85
2023/11/09 06:09:48;;;;;;;1.97;1.77;;;;;;;5.80;65.04;94539.13;6161838;23;20249;-85
2023/11/09 06:12:15;;;;;;;2.37;2.00;;;;;;;5.91;64.50;94531.09;6161786;23;20258;-84
2023/11/09 06:14:42;;;;;;;2.60;1.93;;;;;;;6.01;64.13;94500.19;6160711;23;20214;-85
2023/11/09 06:17:10;;;;;;;3.03;2.10;;;;;;;6.07;63.33;94472.19;6162394;23;20179;-85
2023/11/09 06:19:37;;;;;;;3.23;1.73;;;;;;;6.08;62.96;94444.88;6162087;23;20198;-84
2023/11/09 06:22:06;;;;;;;2.80;1.87;;;;;;;6.11;62.97;94427.44;6161149;23;20627;-85
2023/11/09 06:24:32;;;;;;;2.10;1.90;;;;;;;6.17;62.75;94413.13;6159222;23;20206;-85
2023/11/09 06:27:00;;;;;;;2.00;1.80;;;;;;;6.23;62.59;94413.22;6160011;23;20182;-85
2023/11/09 06:29:27;;;;;;;2.17;1.80;;;;;;;6.32;62.48;94433.59;6158220;23;20202;-84
2023/11/09 06:31:54;;;;;;;2.40;1.80;;;;;;;6.31;63.00;94432.00;6155439;23;20194;-84
2023/11/09 06:34:21;;;;;;;2.53;1.80;;;;;;;6.35;62.34;94408.44;6154412;23;20259;-84
2023/11/09 06:36:47;;;;;;;3.23;1.80;;;;;;;6.42;61.46;94388.88;6154247;23;20202;-84
2023/11/09 06:39:16;;;;;;;4.40;2.10;;;;;;;6.50;61.51;94373.44;6154783;23;20171;-85
2023/11/09 06:41:43;;;;;;;4.33;1.70;;;;;;;6.59;61.34;94381.75;6153603;23;20179;-85
2023/11/09 06:44:10;;;;;;;2.40;2.00;;;;;;;6.67;61.71;94397.00;6153698;23;20194;-84
2023/11/09 06:46:37;;;;;;;2.93;1.80;;;;;;;6.71;60.93;94380.31;6152916;23;20178;-85
2023/11/09 06:49:04;;;;;;;4.33;2.00;;;;;;;6.75;61.10;94386.63;6154644;23;20291;-84
2023/11/09 06:51:32;;;;;;;2.90;1.90;;;;;;;6.84;60.80;94385.56;6152701;23;20183;-84
2023/11/09 06:53:58;;;;;;;8.87;2.10;;;;;;;6.97;61.21;94402.00;6152420;23;20289;-84
2023/11/09 06:56:27;;;;;;;5.37;2.20;;;;;;;7.11;61.49;94411.38;6152748;23;20278;-84
2023/11/09 06:58:53;;;;;;;5.43;2.20;;;;;;;7.20;61.01;94395.69;6153194;23;20686;-84
2023/11/09 07:01:20;;;;;;;2.23;2.00;;;;;;;7.36;60.25;94374.16;6152500;23;20183;-84
2023/11/09 07:03:47;;;;;;;4.80;1.77;;;;;;;7.55;60.52;94372.72;6152365;23;20199;-85
2023/11/09 07:06:13;;;;;;;3.17;1.97;;;;;;;7.71;60.93;94398.03;6152124;23;20175;-85
2023/11/09 07:08:40;;;;;;;4.30;2.30;;;;;;;7.58;60.44;94349.28;6151702;23;20194;-85
2023/11/09 07:11:07;;;;;;;3.13;1.93;;;;;;;7.33;61.16;94401.88;6152494;23;20178;-85
2023/11/09 07:13:36;;;;;;;2.47;1.80;;;;;;;7.21;61.54;94407.53;6151544;23;20202;-84
2023/11/09 07:16:02;;;;;;;3.23;1.93;;;;;;;7.19;61.63;94409.47;6152299;23;20186;-85
2023/11/09 07:18:29;;;;;;;3.23;2.43;;;;;;;7.03;62.05;94419.19;6151535;23;20206;-85
2023/11/09 07:20:55;;;;;;;5.63;5.00;;;;;;;7.16;62.04;94437.19;6151598;23;20186;-84
2023/11/09 07:23:24;;;;;;;3.67;3.27;;;;;;;7.29;61.25;94411.75;6152097;23;20653;-84
2023/11/09 07:25:51;;;;;;;2.37;2.10;;;;;;;7.33;60.78;94382.19;6141477;23;20260;-84
2023/11/09 07:28:17;;;;;;;2.70;2.37;;;;;;;7.39;60.62;94357.63;6147266;23;20187;-84
2023/11/09 07:30:48;;;;;;;3.87;2.20;;;;;;;7.43;60.35;94353.72;6145624;23;20179;-84
2023/11/09 07:33:15;;;;;;;3.30;2.50;;;;;;;7.31;60.45;94340.66;6149413;23;20230;-84
2023/11/09 07:35:44;;;;;;;4.77;2.40;;;;;;;7.37;60.87;94380.88;6153035;23;20218;-85
2023/11/09 07:38:14;;;;;;;4.40;2.37;;;;;;;7.55;61.25;94400.88;6161077;23;20175;-85
2023/11/09 07:40:40;;;;;;;7.93;2.50;;;;;;;7.73;60.55;94382.47;6156081;23;20209;-85
2023/11/09 07:43:08;;;;;;;2.30;2.10;;;;;;;7.90;59.74;94356.34;6151796;23;20175;-85
2023/11/09 07:45:35;;;;;;;5.33;2.20;;;;;;;8.02;59.01;94309.69;6153119;23;20202;-83
2023/11/09 07:48:03;;;;;;;4.03;2.40;;;;;;;8.16;57.39;94231.84;6154044;23;20185;-84
2023/11/09 07:50:30;;;;;;;6.17;2.60;;;;;;;8.25;56.50;94169.94;6153822;23;20222;-84
2023/11/09 07:52:57;;;;;;;6.10;2.53;;;;;;;8.37;56.49;94172.72;6151871;23;20193;-84
2023/11/09 07:55:24;;;;;;;2.97;2.20;;;;;;;8.48;56.44;94163.63;6152039;23;20601;-81
2023/11/09 07:57:50;;;;;;;7.00;2.53;;;;;;;8.58;55.99;94143.53;6152630;23;20213;-82
2023/11/09 08:00:17;;;;;;;7.67;3.37;;;;;;;8.74;56.05;94145.66;6153533;23;20182;-82
2023/11/09 08:02:44;;;;;;;11.03;8.10;;;;;;;8.89;55.57;94117.97;6152859;23;20186;-82
2023/11/09 08:05:14;;;;;;;7.40;3.67;;;;;;;9.00;54.78;94075.50;6152903;23;20206;-81
2023/11/09 08:07:40;;;;;;;4.47;2.47;;;;;;;9.04;54.16;94042.53;6152886;23;20254;-82
2023/11/09 08:10:09;;;;;;;5.60;2.90;;;;;;;9.08;53.67;94028.28;6153175;23;20195;-81
2023/11/09 08:12:36;;;;;;;5.43;2.33;;;;;;;9.09;53.74;94012.66;6152753;23;20179;-82
2023/11/09 08:15:04;;;;;;;8.80;2.53;;;;;;;9.18;53.67;94020.94;6153458;23;20206;-82
2023/11/09 08:17:31;;;;;;;8.47;2.50;;;;;;;9.27;53.46;94007.63;6153418;23;20210;-82
2023/11/09 08:19:58;;;;;;;9.57;2.70;;;;;;;9.37;53.40;94001.25;6155827;23;20182;-81
2023/11/09 08:22:26;;;;;;;8.23;2.40;;;;;;;9.53;52.86;93982.75;6152520;23;20634;-81
2023/11/09 08:24:52;;;;;;;11.13;3.93;;;;;;;9.49;55.08;94087.72;6157005;23;20198;-82
2023/11/09 08:27:19;;;;;;;5.03;2.70;;;;;;;9.53;53.93;94042.63;6153080;23;20179;-81
2023/11/09 08:29:46;;;;;;;7.83;3.23;;;;;;;9.60;53.54;94033.13;6152884;23;20199;-82
2023/11/09 08:32:13;;;;;;;7.90;2.90;;;;;;;9.64;53.57;94016.25;6152081;23;20299;-81
2023/11/09 08:34:40;;;;;;;16.93;4.30;;;;;;;9.48;54.15;94052.75;6151912;23;20221;-81
2023/11/09 08:37:06;;;;;;;7.77;3.40;;;;;;;9.65;54.58;94089.00;6151865;23;20193;-82
2023/11/09 08:39:34;;;;;;;6.67;2.77;;;;;;;9.81;53.83;94047.41;6150256;23;20186;-82
2023/11/09 08:42:03;;;;;;;8.70;2.47;;;;;;;10.00;53.32;94043.88;6151286;23;20232;-82
2023/11/09 08:44:29;;;;;;;9.37;2.60;;;;;;;10.21;52.54;93990.50;6151476;23;20194;-81
2023/11/09 08:46:56;;;;;;;5.17;2.13;;;;;;;10.35;51.42;93946.44;6151412;23;20179;-82
2023/11/09 08:49:22;;;;;;;2.83;2.17;;;;;;;10.51;51.13;93939.13;6151882;23;20694;-82
2023/11/09 08:51:49;;;;;;;3.77;1.97;;;;;;;10.70;50.97;93920.88;6151717;23;20598;-82
2023/11/09 08:54:16;;;;;;;2.93;1.90;;;;;;;10.85;50.97;93915.34;6152350;23;20206;-82
2023/11/09 08:56:44;;;;;;;5.23;1.97;;;;;;;10.96;51.32;93929.25;6154069;23;20179;-82
2023/11/09 08:59:11;;;;;;;7.77;1.80;;;;;;;11.05;50.83;93920.22;6154356;23;20171;-82
2023/11/09 09:01:39;;;;;;;3.43;1.83;;;;;;;11.19;49.77;93848.66;6154569;23;20179;-81
2023/11/09 09:04:06;;;;;;;4.57;1.53;;;;;;;11.26;48.84;93784.97;6156320;23;20194;-83
2023/11/09 09:06:32;;;;;;;3.37;1.90;;;;;;;11.32;49.23;93805.47;6153936;23;20182;-83
2023/11/09 09:09:00;;;;;;;3.63;2.00;;;;;;;11.47;49.06;93805.00;6152999;23;20185;-82
2023/11/09 09:11:26;;;;;;;3.60;1.90;;;;;;;11.64;48.62;93792.22;6154833;23;20261;-86
2023/11/09 09:13:54;;;;;;;5.37;1.87;;;;;;;11.81;48.30;93798.25;6157290;23;20537;-85
2023/11/09 09:16:21;;;;;;;7.87;4.00;;;;;;;11.88;47.68;93773.13;6152542;23;20183;-85
2023/11/09 09:18:48;;;;;;;4.53;2.10;;;;;;;11.87;45.81;93642.66;6152521;23;20181;-85
2023/11/09 09:21:15;;;;;;;4.53;1.90;;;;;;;11.97;46.16;93673.75;6153570;23;20182;-85
2023/11/09 09:23:41;;;;;;;3.13;1.57;;;;;;;12.12;45.86;93665.50;6151833;23;20183;-84
2023/11/09 09:26:07;;;;;;;2.97;1.77;;;;;;;12.15;45.38;93634.06;6150657;23;20233;-85
2023/11/09 09:28:34;;;;;;;2.13;1.57;;;;;;;12.30;45.48;93634.34;6152849;23;20502;-85
2023/11/09 09:31:03;;;;;;;2.87;1.40;;;;;;;12.35;45.54;93633.59;6153287;23;20718;-84
2023/11/09 09:33:31;;;;;;;1.60;1.43;;;;;;;12.50;45.82;93636.44;6153049;23;20179;-83
2023/11/09 09:35:57;;;;;;;1.50;1.40;;;;;;;12.54;43.79;93565.25;6154756;23;20175;-85
2023/11/09 09:38:24;;;;;;;4.00;1.50;;;;;;;12.66;43.79;93552.25;6152612;23;20174;-82
2023/11/09 09:40:53;;;;;;;2.83;1.30;;;;;;;12.79;43.13;93516.50;6151914;23;20178;-82
2023/11/09 09:43:22;;;;;;;1.30;1.10;;;;;;;12.94;43.42;93518.47;6150859;23;20183;-82
2023/11/09 09:45:56;;;;;;;1.37;1.20;;;;;;;12.90;41.52;93413.31;6150722;23;20600;-81
2023/11/09 09:48:24;;;;;;;1.27;1.17;;;;;;;12.87;41.38;93406.84;6152906;23;20165;-82
2023/11/09 09:50:52;;;;;;;2.50;1.43;;;;;;;12.71;40.60;93358.66;6152915;23;20199;-82
2023/11/09 09:53:24;;;;;;;1.87;1.20;;;;;;;12.80;42.03;93439.84;6152706;23;20186;-81
2023/11/09 09:55:53;;;;;;;3.47;1.60;;;;;;;12.84;42.18;93465.97;6157333;23;20195;-82
2023/11/09 09:58:21;;;;;;;1.03;1.00;;;;;;;12.82;42.75;93520.41;6151599;23;20179;-82
2023/11/09 10:00:52;;;;;;;2.80;1.23;;;;;;;12.85;42.34;93480.44;6151077;23;20174;-83
2023/11/09 10:03:23;;;;;;;3.47;1.47;;;;;;;12.81;41.62;93456.88;6153790;23;20167;-82
2023/11/09 10:05:50;;;;;;;2.60;1.10;;;;;;;12.92;41.83;93445.63;6154292;23;20729;-82
2023/11/09 10:08:17;;;;;;;1.57;1.37;;;;;;;12.99;41.46;93456.56;6156685;23;20178;-83
2023/11/09 10:10:49;;;;;;;1.97;1.30;;;;;;;13.05;41.80;93454.81;6157617;23;20206;-82
2023/11/09 10:13:18;;;;;;;1.23;1.00;;;;;;;12.95;40.87;93423.72;6156019;23;20214;-82
2023/11/09 10:15:45;;;;;;;1.37;1.17;;;;;;;12.83;41.18;93421.28;6154047;23;20261;-82
2023/11/09 10:18:12;;;;;;;12.33;9.70;;;;;;;12.78;41.76;93450.41;6154564;23;20189;-82
2023/11/09 10:20:40;;;;;;;4.87;3.20;;;;;;;12.70;41.55;93432.75;6152608;23;20175;-83
2023/11/09 10:23:14;;;;;;;2.80;1.20;;;;;;;12.75;41.90;93463.78;6152236;23;20182;-82
2023/11/09 10:25:42;;;;;;;1.47;1.13;;;;;;;12.73;41.47;93436.66;6155841;23;20262;-82
2023/11/09 10:28:13;;;;;;;1.20;1.00;;;;;;;12.75;41.88;93450.09;6150588;23;20182;-82
2023/11/09 10:30:44;;;;;;;0.97;0.80;;;;;;;12.67;41.20;93414.41;6151625;23;20183;-82
2023/11/09 10:33:12;;;;;;;2.10;1.00;;;;;;;12.63;41.50;93410.72;6150813;23;20163;-82
2023/11/09 10:35:40;;;;;;;2.90;0.90;;;;;;;12.60;41.46;93424.13;6152845;23;20195;-82
2023/11/09 10:38:09;;;;;;;1.47;1.20;;;;;;;12.58;42.06;93447.59;6154117;23;20179;-83
2023/11/09 10:40:36;;;;;;;2.10;0.90;;;;;;;12.58;42.01;93431.31;6151988;23;20167;-83
2023/11/09 10:43:05;;;;;;;1.17;1.00;;;;;;;12.59;41.71;93417.41;6149958;23;20230;-83
2023/11/09 10:45:36;;;;;;;0.93;0.93;;;;;;;12.62;41.46;93428.03;6151455;23;20222;-82
2023/11/09 10:48:07;;;;;;;2.23;1.20;;;;;;;12.63;41.56;93439.13;6152021;23;20242;-82
2023/11/09 10:50:34;;;;;;;1.53;0.90;;;;;;;12.61;41.49;93430.84;6154355;23;20683;-83
2023/11/09 10:53:03;;;;;;;1.37;0.90;;;;;;;12.56;41.38;93403.16;6153252;23;20194;-82
2023/11/09 10:55:32;;;;;;;1.10;1.00;;;;;;;12.63;41.04;93392.66;6151518;23;20354;-82
2023/11/09 10:58:05;;;;;;;1.87;1.07;;;;;;;12.77;41.49;93422.25;6153120;23;20246;-82
2023/11/09 11:00:34;;;;;;;2.37;1.20;;;;;;;12.78;40.54;93372.16;6152451;23;20167;-82
2023/11/09 11:03:08;;;;;;;4.07;3.53;;;;;;;12.88;41.12;93408.41;6152907;23;20175;-82
2023/11/09 11:05:40;;;;;;;2.00;1.50;;;;;;;12.86;40.98;93391.59;6152632;23;20709;-82
2023/11/09 11:08:08;;;;;;;1.13;1.03;;;;;;;12.82;41.19;93411.19;6153857;23;20542;-82
2023/11/09 11:10:42;;;;;;;2.30;1.50;;;;;;;12.84;41.77;93435.75;6152077;23;20199;-84
2023/11/09 11:13:11;;;;;;;1.20;1.07;;;;;;;12.88;42.19;93444.56;6153411;23;20194;-84
2023/11/09 11:15:50;;;;;;;1.53;0.90;;;;;;;12.93;41.63;93429.13;6152422;23;20203;-85
2023/11/09 11:18:26;;;;;;;1.93;1.07;;;;;;;12.96;41.46;93420.09;6153116;23;20501;-82
2023/11/09 11:21:09;;;;;;;1.23;1.00;;;;;;;12.82;41.38;93411.97;6152717;23;20159;-82
2023/11/09 11:24:09;;;;;;;2.63;1.00;;;;;;;12.73;41.84;93426.31;6151489;23;20240;-83
2023/11/09 11:26:51;;;;;;;2.03;1.30;;;;;;;12.80;42.26;93453.53;6152775;23;20495;-82
2023/11/09 11:29:18;;;;;;;2.33;1.43;;;;;;;12.91;42.27;93458.78;6153015;23;20170;-82
2023/11/09 11:31:46;;;;;;;2.97;1.20;;;;;;;12.98;42.55;93478.25;6153090;23;20194;-82
2023/11/09 11:34:15;;;;;;;2.13;1.03;;;;;;;13.01;42.73;93464.84;6153729;23;20202;-82
2023/11/09 11:36:47;;;;;;;1.20;1.10;;;;;;;13.08;42.56;93490.50;6152308;23;20159;-82
2023/11/09 11:39:35;;;;;;;1.33;1.10;;;;;;;13.04;42.47;93473.91;6154145;23;20569;-82
2023/11/09 11:42:18;;;;;;;1.23;1.00;;;;;;;13.03;42.79;93490.44;6150241;23;20205;-84
2023/11/09 11:44:55;;;;;;;3.90;3.27;;;;;;;12.99;42.56;93487.56;6147374;23;20682;-84
2023/11/09 11:47:22;;;;;;;3.63;2.10;;;;;;;13.06;42.84;93495.91;6150712;23;20594;-85
2023/11/09 11:49:50;;;;;;;1.73;1.50;;;;;;;13.23;42.78;93490.69;6149104;23;20175;-84
2023/11/09 11:52:19;;;;;;;1.07;1.07;;;;;;;13.29;42.20;93481.16;6156108;23;20725;-82